sensor_id;sensor_type;location;lat;lon;timestamp;temperature;humidity
43995;DHT22;51687;52.160;5.298;2023-03-12T00:01:23;12.40;41.10
43995;DHT22;51687;52.160;5.298;2023-03-12T00:03:50;12.30;40.50
43995;DHT22;51687;52.160;5.298;2023-03-12T00:06:18;12.40;40.60
43995;DHT22;51687;52.160;5.298;2023-03-12T00:08:46;12.40;40.40
43995;DHT22;51687;52.160;5.298;2023-03-12T00:11:16;12.40;40.70
43995;DHT22;51687;52.160;5.298;2023-03-12T00:13:43;12.50;40.40
43995;DHT22;51687;52.160;5.298;2023-03-12T00:16:13;12.50;40.40
43995;DHT22;51687;52.160;5.298;2023-03-12T00:18:41;12.60;40.40
43995;DHT22;51687;52.160;5.298;2023-03-12T00:21:08;12.60;40.50
43995;DHT22;51687;52.160;5.298;2023-03-12T00:23:35;12.70;40.70
43995;DHT22;51687;52.160;5.298;2023-03-12T00:26:10;12.70;40.20
43995;DHT22;51687;52.160;5.298;2023-03-12T00:28:37;12.70;40.10
43995;DHT22;51687;52.160;5.298;2023-03-12T00:31:22;12.80;39.80
43995;DHT22;51687;52.160;5.298;2023-03-12T00:33:51;12.80;39.80
43995;DHT22;51687;52.160;5.298;2023-03-12T00:36:20;12.80;39.70
43995;DHT22;51687;52.160;5.298;2023-03-12T00:38:53;12.90;39.60
43995;DHT22;51687;52.160;5.298;2023-03-12T00:41:22;12.80;39.60
43995;DHT22;51687;52.160;5.298;2023-03-12T00:43:50;12.80;39.90
43995;DHT22;51687;52.160;5.298;2023-03-12T00:46:18;12.80;39.90
43995;DHT22;51687;52.160;5.298;2023-03-12T00:48:45;12.90;39.90
43995;DHT22;51687;52.160;5.298;2023-03-12T00:51:12;12.90;39.70
43995;DHT22;51687;52.160;5.298;2023-03-12T00:53:39;12.90;39.70
43995;DHT22;51687;52.160;5.298;2023-03-12T00:56:06;12.80;39.80
43995;DHT22;51687;52.160;5.298;2023-03-12T00:58:33;12.80;39.40
43995;DHT22;51687;52.160;5.298;2023-03-12T01:01:00;12.80;39.50
43995;DHT22;51687;52.160;5.298;2023-03-12T01:03:26;12.90;39.40
43995;DHT22;51687;52.160;5.298;2023-03-12T01:05:53;12.90;39.40
43995;DHT22;51687;52.160;5.298;2023-03-12T01:08:21;12.90;39.00
43995;DHT22;51687;52.160;5.298;2023-03-12T01:10:48;13.00;39.20
43995;DHT22;51687;52.160;5.298;2023-03-12T01:13:15;13.00;39.20
43995;DHT22;51687;52.160;5.298;2023-03-12T01:15:42;13.10;38.80
43995;DHT22;51687;52.160;5.298;2023-03-12T01:18:08;13.10;38.90
43995;DHT22;51687;52.160;5.298;2023-03-12T01:20:35;13.10;39.00
43995;DHT22;51687;52.160;5.298;2023-03-12T01:23:02;13.10;39.20
43995;DHT22;51687;52.160;5.298;2023-03-12T01:25:29;13.10;38.90
43995;DHT22;51687;52.160;5.298;2023-03-12T01:27:56;13.10;38.80
43995;DHT22;51687;52.160;5.298;2023-03-12T01:30:22;13.10;39.00
43995;DHT22;51687;52.160;5.298;2023-03-12T01:32:51;13.10;38.90
43995;DHT22;51687;52.160;5.298;2023-03-12T01:35:18;13.00;38.60
43995;DHT22;51687;52.160;5.298;2023-03-12T01:37:44;13.00;38.80
43995;DHT22;51687;52.160;5.298;2023-03-12T01:40:20;13.00;38.30
43995;DHT22;51687;52.160;5.298;2023-03-12T01:42:53;13.00;38.00
43995;DHT22;51687;52.160;5.298;2023-03-12T01:46:00;13.10;38.10
43995;DHT22;51687;52.160;5.298;2023-03-12T01:48:31;13.00;37.80
43995;DHT22;51687;52.160;5.298;2023-03-12T01:50:59;13.00;38.20
43995;DHT22;51687;52.160;5.298;2023-03-12T01:53:27;12.90;38.30
43995;DHT22;51687;52.160;5.298;2023-03-12T01:55:57;12.90;38.50
43995;DHT22;51687;52.160;5.298;2023-03-12T01:58:26;12.90;38.00
43995;DHT22;51687;52.160;5.298;2023-03-12T02:00:53;12.90;38.50
43995;DHT22;51687;52.160;5.298;2023-03-12T02:03:20;13.00;40.20
43995;DHT22;51687;52.160;5.298;2023-03-12T02:05:52;13.00;38.60
43995;DHT22;51687;52.160;5.298;2023-03-12T02:08:21;13.00;38.80
43995;DHT22;51687;52.160;5.298;2023-03-12T02:10:49;12.90;38.50
43995;DHT22;51687;52.160;5.298;2023-03-12T02:13:15;12.90;39.90
43995;DHT22;51687;52.160;5.298;2023-03-12T02:15:42;12.80;39.60
43995;DHT22;51687;52.160;5.298;2023-03-12T02:18:12;12.80;39.10
43995;DHT22;51687;52.160;5.298;2023-03-12T02:21:05;12.80;38.90
43995;DHT22;51687;52.160;5.298;2023-03-12T02:26:11;12.80;39.10
43995;DHT22;51687;52.160;5.298;2023-03-12T02:28:38;12.80;39.00
43995;DHT22;51687;52.160;5.298;2023-03-12T02:31:12;12.80;39.20
43995;DHT22;51687;52.160;5.298;2023-03-12T02:33:40;12.90;38.70
43995;DHT22;51687;52.160;5.298;2023-03-12T02:36:07;12.80;38.40
43995;DHT22;51687;52.160;5.298;2023-03-12T02:38:43;12.80;38.50
43995;DHT22;51687;52.160;5.298;2023-03-12T02:41:18;12.70;38.00
43995;DHT22;51687;52.160;5.298;2023-03-12T02:43:49;12.80;38.80
43995;DHT22;51687;52.160;5.298;2023-03-12T02:46:17;12.70;37.90
43995;DHT22;51687;52.160;5.298;2023-03-12T02:48:44;12.70;38.30
43995;DHT22;51687;52.160;5.298;2023-03-12T02:51:11;12.80;40.00
43995;DHT22;51687;52.160;5.298;2023-03-12T02:53:38;12.80;39.30
43995;DHT22;51687;52.160;5.298;2023-03-12T02:56:05;12.90;38.70
43995;DHT22;51687;52.160;5.298;2023-03-12T02:58:32;12.90;39.20
43995;DHT22;51687;52.160;5.298;2023-03-12T03:00:59;12.90;39.10
43995;DHT22;51687;52.160;5.298;2023-03-12T03:03:26;13.00;39.40
43995;DHT22;51687;52.160;5.298;2023-03-12T03:05:54;13.00;38.80
43995;DHT22;51687;52.160;5.298;2023-03-12T03:08:20;13.00;39.20
43995;DHT22;51687;52.160;5.298;2023-03-12T03:10:50;13.00;38.50
43995;DHT22;51687;52.160;5.298;2023-03-12T03:13:17;13.00;38.80
43995;DHT22;51687;52.160;5.298;2023-03-12T03:15:43;12.90;38.90
43995;DHT22;51687;52.160;5.298;2023-03-12T03:18:10;12.90;39.50
43995;DHT22;51687;52.160;5.298;2023-03-12T03:20:37;12.90;39.40
43995;DHT22;51687;52.160;5.298;2023-03-12T03:23:04;12.90;39.00
43995;DHT22;51687;52.160;5.298;2023-03-12T03:25:32;12.90;39.40
43995;DHT22;51687;52.160;5.298;2023-03-12T03:27:59;13.00;38.70
43995;DHT22;51687;52.160;5.298;2023-03-12T03:30:26;13.00;38.70
43995;DHT22;51687;52.160;5.298;2023-03-12T03:32:52;13.10;38.50
43995;DHT22;51687;52.160;5.298;2023-03-12T03:35:19;13.10;38.30
43995;DHT22;51687;52.160;5.298;2023-03-12T03:37:47;13.10;38.50
43995;DHT22;51687;52.160;5.298;2023-03-12T03:40:14;13.10;38.40
43995;DHT22;51687;52.160;5.298;2023-03-12T03:42:41;13.10;38.60
43995;DHT22;51687;52.160;5.298;2023-03-12T03:45:08;13.20;38.60
43995;DHT22;51687;52.160;5.298;2023-03-12T03:47:35;13.20;37.90
43995;DHT22;51687;52.160;5.298;2023-03-12T03:50:04;13.30;38.30
43995;DHT22;51687;52.160;5.298;2023-03-12T03:52:31;13.30;37.90
43995;DHT22;51687;52.160;5.298;2023-03-12T03:54:58;13.30;38.00
43995;DHT22;51687;52.160;5.298;2023-03-12T03:57:25;13.30;37.70
43995;DHT22;51687;52.160;5.298;2023-03-12T03:59:52;13.20;37.60
43995;DHT22;51687;52.160;5.298;2023-03-12T04:02:19;13.10;37.80
43995;DHT22;51687;52.160;5.298;2023-03-12T04:04:46;13.10;38.40
43995;DHT22;51687;52.160;5.298;2023-03-12T04:07:13;13.00;38.70
43995;DHT22;51687;52.160;5.298;2023-03-12T04:09:40;13.00;38.60
43995;DHT22;51687;52.160;5.298;2023-03-12T04:12:07;13.00;37.90
43995;DHT22;51687;52.160;5.298;2023-03-12T04:14:33;13.00;37.40
43995;DHT22;51687;52.160;5.298;2023-03-12T04:17:00;12.90;37.70
43995;DHT22;51687;52.160;5.298;2023-03-12T04:19:27;12.80;37.70
43995;DHT22;51687;52.160;5.298;2023-03-12T04:21:53;12.80;38.40
43995;DHT22;51687;52.160;5.298;2023-03-12T04:24:20;12.70;38.40
43995;DHT22;51687;52.160;5.298;2023-03-12T04:26:47;12.70;39.10
43995;DHT22;51687;52.160;5.298;2023-03-12T04:29:14;12.60;39.90
43995;DHT22;51687;52.160;5.298;2023-03-12T04:31:41;12.60;40.00
43995;DHT22;51687;52.160;5.298;2023-03-12T04:34:08;12.50;40.30
43995;DHT22;51687;52.160;5.298;2023-03-12T04:36:38;12.50;40.40
43995;DHT22;51687;52.160;5.298;2023-03-12T04:39:05;12.40;41.00
43995;DHT22;51687;52.160;5.298;2023-03-12T04:41:33;12.40;41.10
43995;DHT22;51687;52.160;5.298;2023-03-12T04:44:01;12.30;41.40
43995;DHT22;51687;52.160;5.298;2023-03-12T04:46:28;12.30;42.10
43995;DHT22;51687;52.160;5.298;2023-03-12T04:48:55;12.30;42.40
43995;DHT22;51687;52.160;5.298;2023-03-12T04:51:21;12.30;42.90
43995;DHT22;51687;52.160;5.298;2023-03-12T04:53:48;12.30;43.20
43995;DHT22;51687;52.160;5.298;2023-03-12T04:56:15;12.30;43.50
43995;DHT22;51687;52.160;5.298;2023-03-12T04:58:42;12.30;43.80
43995;DHT22;51687;52.160;5.298;2023-03-12T05:01:22;12.30;44.10
43995;DHT22;51687;52.160;5.298;2023-03-12T05:03:49;12.30;44.90
43995;DHT22;51687;52.160;5.298;2023-03-12T05:06:16;12.30;44.80
43995;DHT22;51687;52.160;5.298;2023-03-12T05:08:43;12.30;44.60
43995;DHT22;51687;52.160;5.298;2023-03-12T05:11:09;12.30;44.50
43995;DHT22;51687;52.160;5.298;2023-03-12T05:13:36;12.20;44.80
43995;DHT22;51687;52.160;5.298;2023-03-12T05:16:03;12.00;45.30
43995;DHT22;51687;52.160;5.298;2023-03-12T05:18:30;11.80;45.60
43995;DHT22;51687;52.160;5.298;2023-03-12T05:31:00;11.70;46.00
43995;DHT22;51687;52.160;5.298;2023-03-12T05:43:22;11.10;47.90
43995;DHT22;51687;52.160;5.298;2023-03-12T05:45:48;10.70;49.10
43995;DHT22;51687;52.160;5.298;2023-03-12T05:48:15;10.70;49.10
43995;DHT22;51687;52.160;5.298;2023-03-12T05:50:43;10.60;49.30
43995;DHT22;51687;52.160;5.298;2023-03-12T06:12:55;10.60;49.20
43995;DHT22;51687;52.160;5.298;2023-03-12T06:15:22;10.20;50.30
43995;DHT22;51687;52.160;5.298;2023-03-12T06:17:49;10.20;50.60
43995;DHT22;51687;52.160;5.298;2023-03-12T06:20:17;10.20;50.60
43995;DHT22;51687;52.160;5.298;2023-03-12T06:22:44;10.20;51.20
43995;DHT22;51687;52.160;5.298;2023-03-12T06:25:10;10.10;51.20
43995;DHT22;51687;52.160;5.298;2023-03-12T06:27:37;10.10;51.40
43995;DHT22;51687;52.160;5.298;2023-03-12T06:30:04;10.10;51.50
43995;DHT22;51687;52.160;5.298;2023-03-12T06:32:31;10.10;52.10
43995;DHT22;51687;52.160;5.298;2023-03-12T06:34:58;10.10;52.40
43995;DHT22;51687;52.160;5.298;2023-03-12T06:37:29;10.00;52.60
43995;DHT22;51687;52.160;5.298;2023-03-12T06:39:56;10.00;52.80
43995;DHT22;51687;52.160;5.298;2023-03-12T06:42:23;10.00;52.90
43995;DHT22;51687;52.160;5.298;2023-03-12T06:44:52;10.00;53.20
43995;DHT22;51687;52.160;5.298;2023-03-12T06:47:19;10.10;53.40
43995;DHT22;51687;52.160;5.298;2023-03-12T06:49:46;10.10;53.60
43995;DHT22;51687;52.160;5.298;2023-03-12T06:52:13;10.20;55.20
43995;DHT22;51687;52.160;5.298;2023-03-12T06:54:40;10.40;54.40
43995;DHT22;51687;52.160;5.298;2023-03-12T06:57:07;10.40;53.90
43995;DHT22;51687;52.160;5.298;2023-03-12T06:59:33;10.50;53.80
43995;DHT22;51687;52.160;5.298;2023-03-12T07:02:00;10.60;53.80
43995;DHT22;51687;52.160;5.298;2023-03-12T07:04:27;10.60;54.10
43995;DHT22;51687;52.160;5.298;2023-03-12T07:06:54;10.60;53.80
43995;DHT22;51687;52.160;5.298;2023-03-12T07:09:21;10.70;54.00
43995;DHT22;51687;52.160;5.298;2023-03-12T07:11:48;10.70;54.00
43995;DHT22;51687;52.160;5.298;2023-03-12T07:14:14;10.70;54.20
43995;DHT22;51687;52.160;5.298;2023-03-12T07:16:41;10.80;54.10
43995;DHT22;51687;52.160;5.298;2023-03-12T07:19:08;10.80;54.00
43995;DHT22;51687;52.160;5.298;2023-03-12T07:21:35;10.80;54.00
43995;DHT22;51687;52.160;5.298;2023-03-12T07:24:02;10.80;54.10
43995;DHT22;51687;52.160;5.298;2023-03-12T07:26:33;10.80;54.40
43995;DHT22;51687;52.160;5.298;2023-03-12T07:29:02;10.70;54.20
43995;DHT22;51687;52.160;5.298;2023-03-12T07:31:29;10.70;54.60
43995;DHT22;51687;52.160;5.298;2023-03-12T07:33:56;10.60;54.70
43995;DHT22;51687;52.160;5.298;2023-03-12T07:36:23;10.60;55.00
43995;DHT22;51687;52.160;5.298;2023-03-12T07:38:50;10.50;55.20
43995;DHT22;51687;52.160;5.298;2023-03-12T07:41:18;10.40;55.40
43995;DHT22;51687;52.160;5.298;2023-03-12T07:43:45;10.40;55.60
43995;DHT22;51687;52.160;5.298;2023-03-12T07:46:13;10.30;55.90
43995;DHT22;51687;52.160;5.298;2023-03-12T07:48:39;10.40;56.40
43995;DHT22;51687;52.160;5.298;2023-03-12T07:51:10;10.40;56.20
43995;DHT22;51687;52.160;5.298;2023-03-12T07:53:38;10.30;56.30
43995;DHT22;51687;52.160;5.298;2023-03-12T07:56:05;10.30;56.50
43995;DHT22;51687;52.160;5.298;2023-03-12T07:58:32;10.30;56.40
43995;DHT22;51687;52.160;5.298;2023-03-12T08:01:03;10.30;56.50
43995;DHT22;51687;52.160;5.298;2023-03-12T08:03:29;10.30;56.60
43995;DHT22;51687;52.160;5.298;2023-03-12T08:06:01;10.30;56.80
43995;DHT22;51687;52.160;5.298;2023-03-12T08:08:29;10.40;57.00
43995;DHT22;51687;52.160;5.298;2023-03-12T08:10:58;10.40;57.30
43995;DHT22;51687;52.160;5.298;2023-03-12T08:13:25;10.40;57.60
43995;DHT22;51687;52.160;5.298;2023-03-12T08:15:52;10.40;57.30
43995;DHT22;51687;52.160;5.298;2023-03-12T08:18:20;10.40;57.50
43995;DHT22;51687;52.160;5.298;2023-03-12T08:20:54;10.30;57.80
43995;DHT22;51687;52.160;5.298;2023-03-12T08:23:21;10.20;58.20
43995;DHT22;51687;52.160;5.298;2023-03-12T08:25:49;10.20;58.40
43995;DHT22;51687;52.160;5.298;2023-03-12T08:28:17;10.10;59.00
43995;DHT22;51687;52.160;5.298;2023-03-12T09:37:35;10.10;59.20
43995;DHT22;51687;52.160;5.298;2023-03-12T09:40:03;10.20;66.30
43995;DHT22;51687;52.160;5.298;2023-03-12T09:42:45;10.30;66.60
43995;DHT22;51687;52.160;5.298;2023-03-12T09:45:30;10.30;66.90
43995;DHT22;51687;52.160;5.298;2023-03-12T09:48:03;10.40;67.10
43995;DHT22;51687;52.160;5.298;2023-03-12T09:50:50;10.50;67.10
43995;DHT22;51687;52.160;5.298;2023-03-12T09:55:57;10.50;67.30
43995;DHT22;51687;52.160;5.298;2023-03-12T12:00:23;12.30;74.20
43995;DHT22;51687;52.160;5.298;2023-03-12T12:21:59;12.40;74.30
43995;DHT22;51687;52.160;5.298;2023-03-12T12:24:49;12.40;74.20
43995;DHT22;51687;52.160;5.298;2023-03-12T12:27:27;12.40;74.30
43995;DHT22;51687;52.160;5.298;2023-03-12T12:50:37;12.40;74.40
43995;DHT22;51687;52.160;5.298;2023-03-12T12:53:29;12.60;73.60
43995;DHT22;51687;52.160;5.298;2023-03-12T12:56:24;12.60;73.40
43995;DHT22;51687;52.160;5.298;2023-03-12T13:01:41;12.60;73.40
43995;DHT22;51687;52.160;5.298;2023-03-12T13:04:21;12.70;72.90
43995;DHT22;51687;52.160;5.298;2023-03-12T13:06:53;12.70;72.70
43995;DHT22;51687;52.160;5.298;2023-03-12T13:09:33;12.70;72.60
43995;DHT22;51687;52.160;5.298;2023-03-12T13:12:06;12.70;72.60
43995;DHT22;51687;52.160;5.298;2023-03-12T13:14:44;12.80;72.00
43995;DHT22;51687;52.160;5.298;2023-03-12T13:17:32;12.80;71.40
43995;DHT22;51687;52.160;5.298;2023-03-12T13:22:51;12.80;70.40
43995;DHT22;51687;52.160;5.298;2023-03-12T13:25:46;12.80;69.40
43995;DHT22;51687;52.160;5.298;2023-03-12T13:28:31;12.80;69.30
43995;DHT22;51687;52.160;5.298;2023-03-12T13:41:53;12.90;69.60
43995;DHT22;51687;52.160;5.298;2023-03-12T13:47:25;13.10;69.40
43995;DHT22;51687;52.160;5.298;2023-03-12T14:05:28;13.10;69.00
43995;DHT22;51687;52.160;5.298;2023-03-12T14:08:17;13.50;67.80
43995;DHT22;51687;52.160;5.298;2023-03-12T14:16:50;13.50;66.40
43995;DHT22;51687;52.160;5.298;2023-03-12T14:19:22;13.60;65.90
43995;DHT22;51687;52.160;5.298;2023-03-12T14:55:37;13.60;65.60
43995;DHT22;51687;52.160;5.298;2023-03-12T14:58:06;13.90;58.20
43995;DHT22;51687;52.160;5.298;2023-03-12T15:00:41;13.90;57.20
43995;DHT22;51687;52.160;5.298;2023-03-12T15:03:14;13.90;57.40
43995;DHT22;51687;52.160;5.298;2023-03-12T15:05:49;13.90;56.70
43995;DHT22;51687;52.160;5.298;2023-03-12T15:08:17;13.90;57.70
43995;DHT22;51687;52.160;5.298;2023-03-12T15:11:03;13.90;58.10
43995;DHT22;51687;52.160;5.298;2023-03-12T15:13:38;13.90;56.90
43995;DHT22;51687;52.160;5.298;2023-03-12T15:16:19;13.90;57.10
43995;DHT22;51687;52.160;5.298;2023-03-12T15:18:47;13.80;58.00
43995;DHT22;51687;52.160;5.298;2023-03-12T15:21:16;13.80;57.90
43995;DHT22;51687;52.160;5.298;2023-03-12T15:23:47;13.90;58.40
43995;DHT22;51687;52.160;5.298;2023-03-12T15:26:25;13.90;58.30
43995;DHT22;51687;52.160;5.298;2023-03-12T15:34:10;13.90;59.20
43995;DHT22;51687;52.160;5.298;2023-03-12T15:36:47;13.90;59.50
43995;DHT22;51687;52.160;5.298;2023-03-12T15:39:27;14.00;59.00
43995;DHT22;51687;52.160;5.298;2023-03-12T15:42:18;13.90;58.80
43995;DHT22;51687;52.160;5.298;2023-03-12T15:44:49;13.90;60.20
43995;DHT22;51687;52.160;5.298;2023-03-12T15:47:19;13.80;59.20
43995;DHT22;51687;52.160;5.298;2023-03-12T15:49:52;13.80;59.40
43995;DHT22;51687;52.160;5.298;2023-03-12T15:55:17;13.90;59.10
43995;DHT22;51687;52.160;5.298;2023-03-12T15:57:52;13.90;59.80
43995;DHT22;51687;52.160;5.298;2023-03-12T16:00:25;13.80;59.40
43995;DHT22;51687;52.160;5.298;2023-03-12T16:05:30;13.80;58.70
43995;DHT22;51687;52.160;5.298;2023-03-12T16:08:19;13.80;58.80
43995;DHT22;51687;52.160;5.298;2023-03-12T16:10:48;13.90;59.20
43995;DHT22;51687;52.160;5.298;2023-03-12T16:13:17;13.90;59.00
43995;DHT22;51687;52.160;5.298;2023-03-12T16:15:46;13.90;58.80
43995;DHT22;51687;52.160;5.298;2023-03-12T16:18:21;13.90;58.60
43995;DHT22;51687;52.160;5.298;2023-03-12T16:20:50;13.90;58.90
43995;DHT22;51687;52.160;5.298;2023-03-12T16:23:21;13.90;59.00
43995;DHT22;51687;52.160;5.298;2023-03-12T16:25:56;13.80;58.80
43995;DHT22;51687;52.160;5.298;2023-03-12T16:28:24;13.80;59.40
43995;DHT22;51687;52.160;5.298;2023-03-12T16:30:53;13.80;59.10
43995;DHT22;51687;52.160;5.298;2023-03-12T16:33:21;13.80;59.30
43995;DHT22;51687;52.160;5.298;2023-03-12T16:35:49;13.80;59.80
43995;DHT22;51687;52.160;5.298;2023-03-12T16:38:16;13.90;59.40
43995;DHT22;51687;52.160;5.298;2023-03-12T16:40:45;13.80;59.40
43995;DHT22;51687;52.160;5.298;2023-03-12T16:43:18;13.80;60.00
43995;DHT22;51687;52.160;5.298;2023-03-12T16:45:54;13.90;59.80
43995;DHT22;51687;52.160;5.298;2023-03-12T16:55:42;13.90;60.10
43995;DHT22;51687;52.160;5.298;2023-03-12T16:58:10;13.90;60.50
43995;DHT22;51687;52.160;5.298;2023-03-12T17:00:38;13.80;60.50
43995;DHT22;51687;52.160;5.298;2023-03-12T17:03:06;13.80;60.80
43995;DHT22;51687;52.160;5.298;2023-03-12T17:05:32;13.90;60.90
43995;DHT22;51687;52.160;5.298;2023-03-12T17:07:59;13.80;61.00
43995;DHT22;51687;52.160;5.298;2023-03-12T17:10:26;13.70;61.50
43995;DHT22;51687;52.160;5.298;2023-03-12T17:12:53;13.60;61.90
43995;DHT22;51687;52.160;5.298;2023-03-12T17:15:24;13.60;62.10
43995;DHT22;51687;52.160;5.298;2023-03-12T17:17:57;13.60;62.00
43995;DHT22;51687;52.160;5.298;2023-03-12T17:20:29;13.50;62.40
43995;DHT22;51687;52.160;5.298;2023-03-12T17:23:02;13.50;62.60
43995;DHT22;51687;52.160;5.298;2023-03-12T17:25:31;13.50;62.80
43995;DHT22;51687;52.160;5.298;2023-03-12T17:27:59;13.50;63.00
43995;DHT22;51687;52.160;5.298;2023-03-12T17:30:28;13.40;63.10
43995;DHT22;51687;52.160;5.298;2023-03-12T17:33:10;13.50;63.30
43995;DHT22;51687;52.160;5.298;2023-03-12T17:35:37;13.50;63.30
43995;DHT22;51687;52.160;5.298;2023-03-12T17:38:05;13.50;63.30
43995;DHT22;51687;52.160;5.298;2023-03-12T17:40:32;13.50;63.30
43995;DHT22;51687;52.160;5.298;2023-03-12T17:43:01;13.60;63.20
43995;DHT22;51687;52.160;5.298;2023-03-12T17:45:27;13.60;63.10
43995;DHT22;51687;52.160;5.298;2023-03-12T17:47:54;13.50;63.00
43995;DHT22;51687;52.160;5.298;2023-03-12T17:50:21;13.50;63.10
43995;DHT22;51687;52.160;5.298;2023-03-12T17:52:48;13.50;63.30
43995;DHT22;51687;52.160;5.298;2023-03-12T17:55:14;13.50;63.10
43995;DHT22;51687;52.160;5.298;2023-03-12T17:57:41;13.60;63.10
43995;DHT22;51687;52.160;5.298;2023-03-12T18:00:11;13.60;62.80
43995;DHT22;51687;52.160;5.298;2023-03-12T18:02:39;13.60;62.60
43995;DHT22;51687;52.160;5.298;2023-03-12T18:05:08;13.50;62.80
43995;DHT22;51687;52.160;5.298;2023-03-12T18:07:36;13.50;62.60
43995;DHT22;51687;52.160;5.298;2023-03-12T18:10:03;13.50;62.80
43995;DHT22;51687;52.160;5.298;2023-03-12T18:12:31;13.60;62.60
43995;DHT22;51687;52.160;5.298;2023-03-12T18:14:58;13.50;62.70
43995;DHT22;51687;52.160;5.298;2023-03-12T18:17:25;13.50;63.20
43995;DHT22;51687;52.160;5.298;2023-03-12T18:19:52;13.40;63.10
43995;DHT22;51687;52.160;5.298;2023-03-12T18:22:18;13.40;63.40
43995;DHT22;51687;52.160;5.298;2023-03-12T18:24:45;13.40;63.60
43995;DHT22;51687;52.160;5.298;2023-03-12T18:27:12;13.40;63.80
43995;DHT22;51687;52.160;5.298;2023-03-12T18:29:39;13.40;63.70
43995;DHT22;51687;52.160;5.298;2023-03-12T18:32:07;13.40;63.80
43995;DHT22;51687;52.160;5.298;2023-03-12T18:34:35;13.30;63.80
43995;DHT22;51687;52.160;5.298;2023-03-12T18:37:03;13.30;64.10
43995;DHT22;51687;52.160;5.298;2023-03-12T18:39:29;13.20;64.20
43995;DHT22;51687;52.160;5.298;2023-03-12T18:41:56;13.20;64.40
43995;DHT22;51687;52.160;5.298;2023-03-12T18:44:24;13.20;64.40
43995;DHT22;51687;52.160;5.298;2023-03-12T18:46:52;13.20;64.60
43995;DHT22;51687;52.160;5.298;2023-03-12T18:49:19;13.10;64.70
43995;DHT22;51687;52.160;5.298;2023-03-12T18:51:46;13.10;64.60
43995;DHT22;51687;52.160;5.298;2023-03-12T18:54:13;13.10;64.90
43995;DHT22;51687;52.160;5.298;2023-03-12T18:56:40;13.10;65.70
43995;DHT22;51687;52.160;5.298;2023-03-12T18:59:07;13.10;65.00
43995;DHT22;51687;52.160;5.298;2023-03-12T19:01:35;13.10;65.00
43995;DHT22;51687;52.160;5.298;2023-03-12T19:04:02;13.10;65.10
43995;DHT22;51687;52.160;5.298;2023-03-12T19:06:29;13.10;65.20
43995;DHT22;51687;52.160;5.298;2023-03-12T19:09:13;13.10;65.20
43995;DHT22;51687;52.160;5.298;2023-03-12T19:11:40;13.00;65.60
43995;DHT22;51687;52.160;5.298;2023-03-12T19:14:07;13.00;65.80
43995;DHT22;51687;52.160;5.298;2023-03-12T19:16:33;13.00;66.00
43995;DHT22;51687;52.160;5.298;2023-03-12T19:19:00;13.10;66.60
43995;DHT22;51687;52.160;5.298;2023-03-12T19:21:27;13.00;66.50
43995;DHT22;51687;52.160;5.298;2023-03-12T19:23:54;13.10;66.80
43995;DHT22;51687;52.160;5.298;2023-03-12T19:26:21;13.00;67.20
43995;DHT22;51687;52.160;5.298;2023-03-12T19:28:48;12.90;67.70
43995;DHT22;51687;52.160;5.298;2023-03-12T19:31:15;12.80;67.90
43995;DHT22;51687;52.160;5.298;2023-03-12T19:33:42;12.80;68.10
43995;DHT22;51687;52.160;5.298;2023-03-12T19:36:09;12.90;68.20
43995;DHT22;51687;52.160;5.298;2023-03-12T19:38:36;12.80;68.00
43995;DHT22;51687;52.160;5.298;2023-03-12T19:41:05;12.80;67.90
43995;DHT22;51687;52.160;5.298;2023-03-12T19:43:34;12.90;67.90
43995;DHT22;51687;52.160;5.298;2023-03-12T19:46:02;12.80;67.80
43995;DHT22;51687;52.160;5.298;2023-03-12T19:48:29;12.90;67.50
43995;DHT22;51687;52.160;5.298;2023-03-12T19:50:56;13.00;67.30
43995;DHT22;51687;52.160;5.298;2023-03-12T19:53:23;13.10;67.10
43995;DHT22;51687;52.160;5.298;2023-03-12T19:55:50;13.10;66.40
43995;DHT22;51687;52.160;5.298;2023-03-12T19:58:17;13.10;66.10
43995;DHT22;51687;52.160;5.298;2023-03-12T20:00:44;13.20;65.70
43995;DHT22;51687;52.160;5.298;2023-03-12T20:03:10;13.10;65.80
43995;DHT22;51687;52.160;5.298;2023-03-12T20:05:41;13.10;65.80
43995;DHT22;51687;52.160;5.298;2023-03-12T20:08:08;13.10;65.80
43995;DHT22;51687;52.160;5.298;2023-03-12T20:10:38;13.10;65.50
43995;DHT22;51687;52.160;5.298;2023-03-12T20:13:05;13.10;65.50
43995;DHT22;51687;52.160;5.298;2023-03-12T20:15:32;13.20;65.30
43995;DHT22;51687;52.160;5.298;2023-03-12T20:17:59;13.20;65.30
43995;DHT22;51687;52.160;5.298;2023-03-12T20:20:26;13.20;65.30
43995;DHT22;51687;52.160;5.298;2023-03-12T20:22:53;13.20;65.40
43995;DHT22;51687;52.160;5.298;2023-03-12T20:25:20;13.30;65.40
43995;DHT22;51687;52.160;5.298;2023-03-12T20:27:46;13.30;65.30
43995;DHT22;51687;52.160;5.298;2023-03-12T20:30:13;13.40;65.20
43995;DHT22;51687;52.160;5.298;2023-03-12T20:32:40;13.50;65.20
43995;DHT22;51687;52.160;5.298;2023-03-12T20:35:08;13.50;65.10
43995;DHT22;51687;52.160;5.298;2023-03-12T20:37:35;13.50;65.00
43995;DHT22;51687;52.160;5.298;2023-03-12T20:40:03;13.60;65.00
43995;DHT22;51687;52.160;5.298;2023-03-12T20:42:30;13.60;65.00
43995;DHT22;51687;52.160;5.298;2023-03-12T20:44:57;13.60;64.90
43995;DHT22;51687;52.160;5.298;2023-03-12T20:47:24;13.60;64.80
43995;DHT22;51687;52.160;5.298;2023-03-12T20:49:51;13.60;64.70
43995;DHT22;51687;52.160;5.298;2023-03-12T20:52:17;13.60;64.80
43995;DHT22;51687;52.160;5.298;2023-03-12T20:54:44;13.70;65.10
43995;DHT22;51687;52.160;5.298;2023-03-12T20:57:11;14.00;74.80
43995;DHT22;51687;52.160;5.298;2023-03-12T20:59:38;13.80;64.50
43995;DHT22;51687;52.160;5.298;2023-03-12T21:02:04;13.80;64.30
43995;DHT22;51687;52.160;5.298;2023-03-12T21:04:31;13.80;64.10
43995;DHT22;51687;52.160;5.298;2023-03-12T21:06:58;13.90;64.10
43995;DHT22;51687;52.160;5.298;2023-03-12T21:09:26;13.90;64.10
43995;DHT22;51687;52.160;5.298;2023-03-12T21:11:52;14.00;63.80
43995;DHT22;51687;52.160;5.298;2023-03-12T21:14:19;13.90;64.40
43995;DHT22;51687;52.160;5.298;2023-03-12T21:16:46;13.90;63.70
43995;DHT22;51687;52.160;5.298;2023-03-12T21:19:13;14.00;63.60
43995;DHT22;51687;52.160;5.298;2023-03-12T21:21:39;14.00;63.60
43995;DHT22;51687;52.160;5.298;2023-03-12T21:24:06;14.00;63.40
43995;DHT22;51687;52.160;5.298;2023-03-12T21:26:33;14.00;63.40
43995;DHT22;51687;52.160;5.298;2023-03-12T21:29:00;14.00;63.50
43995;DHT22;51687;52.160;5.298;2023-03-12T21:31:26;13.90;63.50
43995;DHT22;51687;52.160;5.298;2023-03-12T21:33:57;13.90;63.50
43995;DHT22;51687;52.160;5.298;2023-03-12T21:36:25;14.00;63.50
43995;DHT22;51687;52.160;5.298;2023-03-12T21:38:52;14.00;63.40
43995;DHT22;51687;52.160;5.298;2023-03-12T21:41:19;13.90;63.30
43995;DHT22;51687;52.160;5.298;2023-03-12T21:43:46;14.00;63.40
43995;DHT22;51687;52.160;5.298;2023-03-12T21:46:15;14.00;63.30
43995;DHT22;51687;52.160;5.298;2023-03-12T21:48:44;14.00;63.30